Time;durP1;ratioP1;P1;durP2;ratioP2;P2;SDS_P1;SDS_P2;PMS_P1;PMS_P2;Temp;Humidity;BMP_temperature;BMP_pressure;BME280_temperature;BME280_humidity;BME280_pressure;Samples;Min_cycle;Max_cycle;Signal;HPM_P1;HPM_P2
2023/03/02 00:01:32;;;;;;;386.75;226.38;;;25.20;99.90;;;;;;5131021;28;20034;-68
2023/03/02 00:04:00;;;;;;;112.22;61.75;;;25.20;99.90;;;;;;5130857;28;20464;-67
2023/03/02 00:06:29;;;;;;;708.05;474.05;;;25.20;99.90;;;;;;5130413;28;20480;-68
2023/03/02 00:08:59;;;;;;;127.32;88.30;;;25.20;99.90;;;;;;5130787;28;20094;-68
2023/03/02 00:11:27;;;;;;;436.77;372.40;;;25.20;99.90;;;;;;5130654;28;20016;-68
2023/03/02 00:13:54;;;;;;;104.70;76.97;;;25.20;99.90;;;;;;5130381;28;20085;-68
2023/03/02 00:16:20;;;;;;;283.20;211.18;;;25.20;99.90;;;;;;5126288;28;20016;-68
2023/03/02 00:18:47;;;;;;;277.02;203.15;;;25.20;99.90;;;;;;5116996;28;20024;-68
2023/03/02 00:21:14;;;;;;;528.25;397.65;;;25.20;99.90;;;;;;5116557;28;20016;-67
2023/03/02 00:23:40;;;;;;;695.78;446.25;;;25.30;99.90;;;;;;5116765;28;20073;-68
2023/03/02 00:26:07;;;;;;;77.35;43.90;;;25.40;99.90;;;;;;5116602;28;20038;-67
2023/03/02 00:28:34;;;;;;;94.30;53.63;;;25.40;99.90;;;;;;5116525;28;20026;-67
2023/03/02 00:31:04;;;;;;;193.70;119.78;;;25.40;99.90;;;;;;5116488;28;20023;-66
2023/03/02 00:33:31;;;;;;;215.40;126.05;;;25.40;99.90;;;;;;5116462;28;20476;-66
2023/03/02 00:35:58;;;;;;;415.63;247.18;;;25.30;99.90;;;;;;5116223;28;20028;-66
2023/03/02 00:38:26;;;;;;;447.80;353.17;;;25.30;99.90;;;;;;5121527;27;20088;-66
2023/03/02 00:40:54;;;;;;;574.35;464.50;;;25.30;99.90;;;;;;5137127;27;20053;-67
2023/03/02 00:43:26;;;;;;;150.25;100.10;;;25.30;99.90;;;;;;5137461;27;20034;-67
2023/03/02 00:45:53;;;;;;;280.67;191.00;;;25.40;99.90;;;;;;5136627;27;20030;-67
2023/03/02 00:48:20;;;;;;;199.90;130.13;;;25.40;99.90;;;;;;5136820;27;20054;-67
2023/03/02 00:50:46;;;;;;;104.35;67.68;;;25.50;99.90;;;;;;5136449;27;20098;-67
2023/03/02 00:53:16;;;;;;;68.80;44.15;;;25.50;99.90;;;;;;5136700;27;20027;-66
2023/03/02 00:55:53;;;;;;;64.07;43.90;;;25.50;99.90;;;;;;5136583;27;20046;-67
2023/03/02 00:58:20;;;;;;;55.45;38.42;;;25.50;99.90;;;;;;5136512;27;20123;-68
2023/03/02 01:00:47;;;;;;;54.58;30.05;;;25.50;99.90;;;;;;5136323;27;20022;-67
2023/03/02 01:03:14;;;;;;;277.27;168.27;;;25.50;99.90;;;;;;5136190;27;20019;-66
2023/03/02 01:05:41;;;;;;;40.33;22.38;;;25.60;99.90;;;;;;5136230;27;20039;-67
2023/03/02 01:08:08;;;;;;;100.70;61.95;;;25.60;99.90;;;;;;5136422;27;20011;-67
2023/03/02 01:10:34;;;;;;;145.02;101.32;;;25.50;99.90;;;;;;5136412;27;20039;-66
2023/03/02 01:13:01;;;;;;;83.68;52.47;;;25.60;99.90;;;;;;5136127;27;20023;-67
2023/03/02 01:15:27;;;;;;;113.18;68.18;;;25.60;99.90;;;;;;5136157;27;20483;-67
2023/03/02 01:17:54;;;;;;;294.33;173.85;;;25.60;99.90;;;;;;5136087;27;20080;-66
2023/03/02 01:20:20;;;;;;;142.70;85.63;;;25.70;99.90;;;;;;5136446;27;20510;-67
2023/03/02 01:22:47;;;;;;;24.48;16.65;;;25.70;99.90;;;;;;5136867;27;20023;-66
2023/03/02 01:25:14;;;;;;;32.22;18.23;;;25.80;99.90;;;;;;5136454;27;20027;-65
2023/03/02 01:27:40;;;;;;;136.13;82.47;;;25.80;99.90;;;;;;5136100;27;20483;-67
2023/03/02 01:30:08;;;;;;;33.90;16.63;;;25.80;99.90;;;;;;5136084;27;20083;-67
2023/03/02 01:32:34;;;;;;;39.45;24.08;;;25.80;99.90;;;;;;5136532;27;20075;-65
2023/03/02 01:35:01;;;;;;;46.28;24.70;;;25.90;99.90;;;;;;5136351;27;20052;-67
2023/03/02 01:37:27;;;;;;;36.63;21.48;;;26.00;99.90;;;;;;5136310;27;20098;-67
2023/03/02 01:39:54;;;;;;;26.42;17.40;;;26.00;99.90;;;;;;5136445;27;20440;-67
2023/03/02 01:42:20;;;;;;;26.13;15.43;;;26.00;99.90;;;;;;5136082;27;20020;-67
2023/03/02 01:44:50;;;;;;;27.25;15.40;;;26.10;99.90;;;;;;5135926;27;20026;-66
2023/03/02 01:47:19;;;;;;;24.17;15.45;;;26.10;99.90;;;;;;5136004;27;20523;-67
2023/03/02 01:49:53;;;;;;;60.78;34.97;;;26.20;99.90;;;;;;5135928;27;20039;-67
2023/03/02 01:52:21;;;;;;;54.15;30.58;;;26.30;99.90;;;;;;5135631;27;20020;-65
2023/03/02 01:54:50;;;;;;;21.40;16.35;;;26.40;99.90;;;;;;5135175;27;20034;-67
2023/03/02 01:57:24;;;;;;;37.03;13.57;;;26.40;99.90;;;;;;5135192;27;20073;-67
2023/03/02 01:59:55;;;;;;;26.55;18.70;;;26.50;99.90;;;;;;5133675;27;20027;-67
2023/03/02 02:02:22;;;;;;;24.25;12.27;;;26.60;99.90;;;;;;5133538;27;20118;-66
2023/03/02 02:04:49;;;;;;;23.63;12.52;;;26.60;99.90;;;;;;5133116;27;20237;-66
2023/03/02 02:07:16;;;;;;;25.52;14.98;;;26.70;99.90;;;;;;5134035;27;20024;-67
2023/03/02 02:09:48;;;;;;;23.08;15.43;;;26.80;99.90;;;;;;5134374;27;20068;-68
2023/03/02 02:12:16;;;;;;;;;;;26.90;99.90;;;;;;5121166;27;20408;-68
2023/03/02 02:14:43;;;;;;;42.83;25.75;;;27.00;99.90;;;;;;5123502;27;19911;-66
2023/03/02 02:17:11;;;;;;;21.95;12.43;;;27.10;99.90;;;;;;5121257;27;20031;-68
2023/03/02 02:20:01;;;;;;;30.58;19.02;;;27.10;99.90;;;;;;5118959;27;20034;-67
2023/03/02 02:22:43;;;;;;;27.70;16.10;;;27.20;99.90;;;;;;5131335;27;20038;-67
2023/03/02 02:25:25;;;;;;;26.83;15.10;;;27.30;99.90;;;;;;5134672;27;20096;-68
2023/03/02 02:27:52;;;;;;;20.27;11.95;;;27.30;99.90;;;;;;5125039;27;20252;-68
2023/03/02 02:30:20;;;;;;;22.95;10.85;;;27.30;99.90;;;;;;5117162;27;20479;-67
2023/03/02 02:32:48;;;;;;;27.13;13.15;;;27.40;99.90;;;;;;5134620;27;20023;-68
2023/03/02 02:35:23;;;;;;;31.52;20.13;;;27.40;99.90;;;;;;5128326;27;20522;-67
2023/03/02 02:37:52;;;;;;;21.70;14.93;;;27.40;99.90;;;;;;5121340;27;20098;-67
2023/03/02 02:40:50;;;;;;;31.80;19.10;;;27.50;99.90;;;;;;5132774;27;20531;-67
2023/03/02 02:43:19;;;;;;;28.60;18.95;;;27.50;99.90;;;;;;5071025;28;20037;-67
2023/03/02 02:45:50;;;;;;;21.75;14.38;;;27.60;99.90;;;;;;5050682;28;20081;-67
2023/03/02 02:48:23;;;;;;;30.67;18.98;;;27.60;99.90;;;;;;5062124;28;20029;-67
2023/03/02 02:51:02;;;;;;;29.88;16.67;;;27.60;99.90;;;;;;5071235;28;20116;-68
2023/03/02 02:53:57;;;;;;;55.42;38.70;;;27.60;99.90;;;;;;5071364;28;20066;-67
2023/03/02 02:56:29;;;;;;;75.40;56.40;;;27.60;99.90;;;;;;4940393;28;20061;-65
2023/03/02 02:59:01;;;;;;;50.03;35.85;;;27.70;99.90;;;;;;4948138;29;20043;-68
2023/03/02 03:01:28;;;;;;;24.77;20.03;;;27.70;99.90;;;;;;4953204;29;20110;-68
2023/03/02 03:03:59;;;;;;;44.90;36.45;;;27.80;99.90;;;;;;4953297;29;20043;-67
2023/03/02 03:06:37;;;;;;;15.65;11.80;;;27.90;99.90;;;;;;4951501;29;20040;-68
2023/03/02 03:09:05;;;;;;;17.73;12.10;;;28.00;99.90;;;;;;4953140;29;20126;-71
2023/03/02 03:11:35;;;;;;;15.48;10.50;;;28.10;99.90;;;;;;4953328;29;20027;-68
2023/03/02 03:14:06;;;;;;;17.92;13.07;;;28.20;99.90;;;;;;5002284;28;20490;-69
2023/03/02 03:16:34;;;;;;;18.00;11.73;;;28.20;99.90;;;;;;5031185;28;20033;-71
2023/03/02 03:19:27;;;;;;;21.50;13.73;;;28.30;99.90;;;;;;5031088;28;20113;-68
2023/03/02 03:21:57;;;;;;;10.90;8.20;;;28.30;99.90;;;;;;5031165;28;20056;-69
2023/03/02 03:24:24;;;;;;;13.35;9.30;;;28.40;99.90;;;;;;5030858;28;20576;-69
2023/03/02 03:26:53;;;;;;;16.15;9.75;;;28.50;99.90;;;;;;5014518;28;20387;-70
2023/03/02 03:29:22;;;;;;;16.35;9.38;;;28.50;99.90;;;;;;5031165;28;20029;-68
2023/03/02 03:31:51;;;;;;;11.75;7.10;;;28.50;99.90;;;;;;5014628;28;20386;-67
2023/03/02 03:34:18;;;;;;;32.25;20.98;;;28.60;99.90;;;;;;5031128;28;20026;-68
2023/03/02 03:36:44;;;;;;;25.55;17.38;;;28.70;99.90;;;;;;5031135;28;20083;-67
2023/03/02 03:39:11;;;;;;;21.23;14.35;;;28.70;99.90;;;;;;5058691;28;20503;-72
2023/03/02 03:41:39;;;;;;;10.30;7.03;;;28.80;99.90;;;;;;5134190;28;20015;-68
2023/03/02 03:44:06;;;;;;;28.65;16.15;;;28.80;99.90;;;;;;5115751;28;20045;-69
2023/03/02 03:46:33;;;;;;;15.07;10.02;;;28.80;99.90;;;;;;5133798;28;20023;-69
2023/03/02 03:49:00;;;;;;;19.10;10.13;;;28.80;99.90;;;;;;5115610;28;20475;-69
2023/03/02 03:51:27;;;;;;;14.95;9.63;;;28.80;99.90;;;;;;5134599;27;20494;-68
2023/03/02 03:54:02;;;;;;;10.82;6.45;;;28.80;99.90;;;;;;5137851;27;20015;-67
2023/03/02 03:56:32;;;;;;;21.40;11.18;;;28.90;99.90;;;;;;5137812;27;20472;-67
2023/03/02 03:59:08;;;;;;;55.08;33.78;;;28.90;99.90;;;;;;5137724;27;20023;-69
2023/03/02 04:01:36;;;;;;;68.40;47.90;;;29.00;99.90;;;;;;5137753;27;20027;-67
2023/03/02 04:04:05;;;;;;;55.10;39.05;;;29.10;99.90;;;;;;5137695;27;20034;-68
2023/03/02 04:06:32;;;;;;;16.35;8.70;;;29.10;99.90;;;;;;5137335;27;20039;-68
2023/03/02 04:09:03;;;;;;;7.25;5.18;;;29.20;99.90;;;;;;5137714;27;20015;-69
2023/03/02 04:11:33;;;;;;;49.13;32.73;;;29.40;99.90;;;;;;5137621;27;20030;-65
2023/03/02 04:13:59;;;;;;;9.43;7.35;;;29.40;99.90;;;;;;5137395;27;20261;-67
2023/03/02 04:16:27;;;;;;;16.52;10.38;;;29.40;99.90;;;;;;5137357;27;20015;-67
2023/03/02 04:18:54;;;;;;;9.48;4.50;;;29.40;99.90;;;;;;5116669;27;20055;-68
2023/03/02 04:21:21;;;;;;;11.65;7.28;;;29.40;99.90;;;;;;5132331;27;20062;-66
2023/03/02 04:23:48;;;;;;;12.13;4.88;;;29.40;99.90;;;;;;5136253;27;20098;-68
2023/03/02 04:26:14;;;;;;;12.27;5.35;;;29.40;99.90;;;;;;5130292;27;20066;-66
2023/03/02 04:28:41;;;;;;;12.55;5.22;;;29.40;99.90;;;;;;5137078;27;20019;-68
2023/03/02 04:31:07;;;;;;;9.35;4.90;;;29.40;99.90;;;;;;5136985;27;20094;-67
2023/03/02 04:33:34;;;;;;;10.05;4.68;;;29.50;99.90;;;;;;5116444;28;20026;-67
2023/03/02 04:36:01;;;;;;;13.48;6.25;;;29.50;99.90;;;;;;5116247;28;20483;-67
2023/03/02 04:38:28;;;;;;;22.10;10.60;;;29.50;99.90;;;;;;5132338;27;20566;-66
2023/03/02 04:40:56;;;;;;;20.23;11.32;;;29.60;99.90;;;;;;5135884;27;20464;-67
2023/03/02 04:43:24;;;;;;;11.77;9.30;;;29.70;99.90;;;;;;5135745;27;20019;-66
2023/03/02 04:45:52;;;;;;;8.73;6.32;;;29.70;99.90;;;;;;5133066;27;20635;-67
2023/03/02 04:48:20;;;;;;;14.90;7.95;;;29.70;99.90;;;;;;5133114;27;20019;-66
2023/03/02 04:50:46;;;;;;;35.78;25.23;;;29.70;99.90;;;;;;5135882;27;20019;-67
2023/03/02 04:53:13;;;;;;;15.20;7.40;;;29.70;99.90;;;;;;5135763;27;20030;-67
2023/03/02 04:55:40;;;;;;;89.10;61.58;;;29.70;99.90;;;;;;5135851;27;20486;-67
2023/03/02 04:58:06;;;;;;;9.32;6.60;;;29.70;99.90;;;;;;5135789;27;20479;-67
2023/03/02 05:00:34;;;;;;;25.92;17.70;;;29.80;99.90;;;;;;5136310;27;20035;-67
2023/03/02 05:03:03;;;;;;;31.33;17.38;;;29.80;99.90;;;;;;5117216;27;20016;-67
2023/03/02 05:05:30;;;;;;;23.27;15.30;;;29.80;99.90;;;;;;5130307;27;20050;-67
2023/03/02 05:07:58;;;;;;;28.83;18.63;;;29.90;99.90;;;;;;5135342;27;20019;-69
2023/03/02 05:10:25;;;;;;;42.88;27.55;;;29.90;99.90;;;;;;5136209;27;20570;-69
2023/03/02 05:12:56;;;;;;;44.85;27.63;;;29.90;99.90;;;;;;5136465;27;20072;-67
2023/03/02 05:15:25;;;;;;;23.83;15.13;;;30.00;99.90;;;;;;5136412;27;20406;-67
2023/03/02 05:17:52;;;;;;;10.57;6.22;;;30.10;99.90;;;;;;5136138;27;20019;-67
2023/03/02 05:20:19;;;;;;;12.73;8.30;;;30.20;99.90;;;;;;5136296;27;20023;-68
2023/03/02 05:22:46;;;;;;;48.00;35.50;;;30.20;99.90;;;;;;5136305;27;20054;-66
2023/03/02 05:25:13;;;;;;;27.55;18.42;;;30.20;99.90;;;;;;5136110;27;20103;-65
2023/03/02 05:27:42;;;;;;;23.45;18.00;;;30.20;99.90;;;;;;5136113;27;20025;-67
2023/03/02 05:30:09;;;;;;;29.80;17.05;;;30.20;99.90;;;;;;5136209;27;20055;-68
2023/03/02 05:32:35;;;;;;;35.92;19.27;;;30.20;99.90;;;;;;5136135;27;20015;-69
2023/03/02 05:35:02;;;;;;;30.67;19.02;;;30.20;99.90;;;;;;5129944;27;20377;-70
2023/03/02 05:37:28;;;;;;;17.48;9.73;;;30.20;99.90;;;;;;5124528;27;20020;-69
2023/03/02 05:39:55;;;;;;;19.02;10.80;;;30.30;99.90;;;;;;5115442;28;20020;-67
2023/03/02 05:42:21;;;;;;;13.07;6.28;;;30.30;99.90;;;;;;5115200;28;20027;-75
2023/03/02 05:44:48;;;;;;;15.07;7.00;;;30.30;99.90;;;;;;5114913;28;20019;-75
2023/03/02 05:47:15;;;;;;;15.60;8.40;;;30.40;99.90;;;;;;5114965;28;20057;-70
2023/03/02 05:49:41;;;;;;;13.38;6.95;;;30.50;99.90;;;;;;5114793;28;20103;-70
2023/03/02 05:52:08;;;;;;;10.43;5.30;;;30.50;99.90;;;;;;5115064;28;20511;-70
2023/03/02 05:54:34;;;;;;;12.88;5.40;;;30.50;99.90;;;;;;5114882;28;20062;-69
2023/03/02 05:57:01;;;;;;;8.73;5.07;;;30.60;99.90;;;;;;5096980;28;20437;-69
2023/03/02 05:59:27;;;;;;;6.45;3.83;;;30.70;99.90;;;;;;5114946;28;20024;-79
2023/03/02 06:01:57;;;;;;;6.28;3.85;;;30.80;99.90;;;;;;5114681;28;20018;-78
2023/03/02 06:04:25;;;;;;;13.90;5.70;;;30.80;99.90;;;;;;5114054;28;20024;-76
2023/03/02 06:06:51;;;;;;;9.95;4.95;;;30.80;99.90;;;;;;5123345;27;20042;-78
2023/03/02 06:09:18;;;;;;;10.25;5.78;;;30.80;99.90;;;;;;5135191;27;20031;-73
2023/03/02 06:11:45;;;;;;;10.80;5.10;;;30.80;99.90;;;;;;5135015;27;20076;-69
2023/03/02 06:14:11;;;;;;;8.02;4.90;;;30.90;99.90;;;;;;5134561;27;20011;-70
2023/03/02 06:16:38;;;;;;;12.52;5.85;;;30.90;99.90;;;;;;5134967;27;20031;-74
2023/03/02 06:19:04;;;;;;;8.30;5.15;;;30.90;99.90;;;;;;5134766;27;20033;-69
2023/03/02 06:21:31;;;;;;;6.30;4.32;;;31.00;99.90;;;;;;5134873;27;20034;-69
2023/03/02 06:23:57;;;;;;;7.07;3.83;;;31.00;99.90;;;;;;5135179;27;20357;-68
2023/03/02 06:26:24;;;;;;;6.50;3.88;;;31.10;99.90;;;;;;5135372;27;20023;-68
2023/03/02 06:28:51;;;;;;;10.57;5.47;;;31.10;99.90;;;;;;5135209;27;20376;-66
2023/03/02 06:31:17;;;;;;;9.05;4.95;;;31.10;99.90;;;;;;5134975;27;20019;-65
2023/03/02 06:33:44;;;;;;;7.57;4.43;;;31.10;99.90;;;;;;5134635;27;20020;-65
2023/03/02 06:36:11;;;;;;;9.70;4.38;;;31.10;99.90;;;;;;5135000;27;20022;-65
2023/03/02 06:38:38;;;;;;;8.85;6.00;;;31.10;99.90;;;;;;5135182;27;20027;-68
2023/03/02 06:41:04;;;;;;;12.73;7.88;;;31.20;99.90;;;;;;5127557;27;20028;-69
2023/03/02 06:43:31;;;;;;;13.55;7.90;;;31.10;99.90;;;;;;5122570;27;20023;-68
2023/03/02 06:45:59;;;;;;;9.80;4.85;;;31.10;99.90;;;;;;5113915;28;20062;-68
2023/03/02 06:48:26;;;;;;;8.30;4.80;;;31.10;99.90;;;;;;5113867;28;20353;-68
2023/03/02 06:50:52;;;;;;;9.80;6.90;;;31.10;99.90;;;;;;5113890;28;20379;-68
2023/03/02 06:53:21;;;;;;;12.10;6.80;;;31.20;99.90;;;;;;5113948;28;20022;-68
2023/03/02 06:55:48;;;;;;;15.23;6.72;;;31.30;99.90;;;;;;5114242;28;20089;-68
2023/03/02 06:58:15;;;;;;;12.38;8.35;;;31.50;99.90;;;;;;5114187;28;20573;-68
2023/03/02 07:00:41;;;;;;;9.27;5.07;;;31.60;99.90;;;;;;5113480;28;20027;-67
2023/03/02 07:03:08;;;;;;;9.18;4.13;;;31.70;99.90;;;;;;5113549;28;20019;-66
2023/03/02 07:05:35;;;;;;;9.18;4.40;;;31.80;99.90;;;;;;5113504;28;20054;-66
2023/03/02 07:08:02;;;;;;;11.35;7.05;;;31.80;99.90;;;;;;5113768;28;20486;-65
2023/03/02 07:10:29;;;;;;;9.93;6.38;;;31.70;99.90;;;;;;5113341;28;20019;-65
2023/03/02 07:12:55;;;;;;;5.68;4.07;;;31.60;99.90;;;;;;5113824;28;20149;-69
2023/03/02 07:15:22;;;;;;;10.52;6.00;;;31.50;99.90;;;;;;5113577;28;20036;-66
2023/03/02 07:17:48;;;;;;;11.75;6.15;;;31.40;99.90;;;;;;5113619;28;20015;-67
2023/03/02 07:20:17;;;;;;;9.65;5.45;;;31.40;99.90;;;;;;5113715;28;20019;-70
2023/03/02 07:22:44;;;;;;;9.50;6.20;;;31.40;99.90;;;;;;5113672;28;20026;-69
2023/03/02 07:25:11;;;;;;;10.68;5.68;;;31.40;99.90;;;;;;5116051;28;20024;-68
2023/03/02 07:27:38;;;;;;;9.18;5.53;;;31.40;99.90;;;;;;5125859;27;20042;-69
2023/03/02 07:30:06;;;;;;;9.77;6.15;;;31.40;99.90;;;;;;5118233;28;20016;-69
2023/03/02 07:32:33;;;;;;;8.20;5.78;;;31.30;99.90;;;;;;5118506;28;20023;-68
2023/03/02 07:34:59;;;;;;;10.35;6.57;;;31.30;99.90;;;;;;5118875;28;20031;-68
2023/03/02 07:37:26;;;;;;;13.20;6.30;;;31.30;99.90;;;;;;5118567;28;20034;-69
2023/03/02 07:39:53;;;;;;;6.07;4.63;;;31.40;99.90;;;;;;5118613;28;20039;-66
2023/03/02 07:42:19;;;;;;;6.32;4.65;;;31.40;99.90;;;;;;5118610;28;20047;-68
2023/03/02 07:44:46;;;;;;;6.63;5.20;;;31.50;99.90;;;;;;5118098;28;20472;-67
2023/03/02 07:47:13;;;;;;;5.60;4.30;;;31.50;99.90;;;;;;5118440;28;20026;-68
2023/03/02 07:49:40;;;;;;;6.47;4.80;;;31.50;99.90;;;;;;5118225;28;20024;-70
2023/03/02 07:52:07;;;;;;;12.73;6.72;;;31.70;99.90;;;;;;5118432;28;20529;-70
2023/03/02 07:54:33;;;;;;;10.82;5.22;;;31.80;99.90;;;;;;5100055;28;20448;-69
2023/03/02 07:57:00;;;;;;;8.40;4.75;;;31.90;99.90;;;;;;5117405;28;20022;-68
2023/03/02 07:59:27;;;;;;;7.82;5.05;;;31.90;99.90;;;;;;5125443;27;20034;-73
2023/03/02 08:01:55;;;;;;;6.38;4.97;;;31.90;99.90;;;;;;5120635;27;20012;-69
2023/03/02 08:04:21;;;;;;;5.60;4.18;;;31.80;99.90;;;;;;5116981;28;20016;-68
2023/03/02 08:06:48;;;;;;;9.95;4.28;;;31.80;99.90;;;;;;5117249;28;20047;-67
2023/03/02 08:09:15;;;;;;;7.22;4.50;;;31.90;99.90;;;;;;5117137;28;20023;-69
2023/03/02 08:11:42;;;;;;;11.27;5.00;;;31.90;99.90;;;;;;5117007;28;20024;-67
2023/03/02 08:14:08;;;;;;;10.73;4.93;;;31.90;99.90;;;;;;5117041;28;20032;-69
2023/03/02 08:16:35;;;;;;;9.52;3.90;;;31.90;99.90;;;;;;5117132;28;20118;-68
2023/03/02 08:19:01;;;;;;;13.55;7.32;;;31.90;99.90;;;;;;5116829;28;20031;-68
2023/03/02 08:21:28;;;;;;;10.80;6.35;;;31.90;99.90;;;;;;5117022;28;20023;-68
2023/03/02 08:23:55;;;;;;;13.13;6.35;;;31.90;99.90;;;;;;5116960;28;20016;-68
2023/03/02 08:26:21;;;;;;;12.02;6.90;;;31.90;99.90;;;;;;5123277;27;20023;-69
2023/03/02 08:28:48;;;;;;;10.35;6.32;;;32.00;99.90;;;;;;5131985;27;20089;-69
2023/03/02 08:31:15;;;;;;;11.68;6.82;;;32.00;99.90;;;;;;5125773;27;20023;-69
2023/03/02 08:33:42;;;;;;;7.55;5.38;;;32.00;99.90;;;;;;5116502;28;20027;-68
2023/03/02 08:36:14;;;;;;;10.07;4.97;;;32.00;99.90;;;;;;5116780;28;20016;-70
2023/03/02 08:38:40;;;;;;;;;;;32.00;99.90;;;;;;5116669;28;20376;-67
2023/03/02 08:41:10;;;;;;;7.50;5.35;;;32.00;99.90;;;;;;5116341;28;19910;-67
2023/03/02 08:43:36;;;;;;;9.10;5.55;;;31.90;99.90;;;;;;5116416;28;20034;-67
2023/03/02 08:46:04;;;;;;;12.73;6.38;;;32.00;99.90;;;;;;5116385;28;20027;-67
2023/03/02 08:48:31;;;;;;;12.77;6.50;;;32.00;99.90;;;;;;5116140;28;20020;-66
2023/03/02 08:51:01;;;;;;;16.10;8.02;;;32.00;99.90;;;;;;5116183;28;20020;-67
2023/03/02 08:53:30;;;;;;;22.33;12.32;;;32.00;99.90;;;;;;5116078;28;20016;-67
2023/03/02 08:55:57;;;;;;;20.40;10.75;;;32.00;99.90;;;;;;5116041;28;20471;-64
2023/03/02 08:58:24;;;;;;;19.80;11.50;;;32.00;99.90;;;;;;5116168;28;20031;-67
2023/03/02 09:00:51;;;;;;;24.90;13.88;;;32.00;99.90;;;;;;5116016;28;20031;-67
2023/03/02 09:03:17;;;;;;;21.38;12.15;;;32.00;99.90;;;;;;5115792;28;20388;-71
2023/03/02 09:05:44;;;;;;;23.25;11.70;;;32.00;99.90;;;;;;5115701;28;20035;-70
2023/03/02 09:08:11;;;;;;;17.23;10.73;;;32.00;99.90;;;;;;5115821;28;20012;-70
2023/03/02 09:10:38;;;;;;;38.95;22.90;;;32.00;99.90;;;;;;5115670;28;20099;-70
2023/03/02 09:13:06;;;;;;;41.17;24.85;;;32.00;99.90;;;;;;5115833;28;20051;-68
2023/03/02 09:15:32;;;;;;;32.70;19.17;;;32.00;99.90;;;;;;5115882;28;20476;-69
2023/03/02 09:17:59;;;;;;;22.67;12.75;;;32.00;99.90;;;;;;5115494;28;20383;-69
2023/03/02 09:20:26;;;;;;;14.40;9.35;;;32.00;99.90;;;;;;5115531;28;20020;-69
2023/03/02 09:22:52;;;;;;;8.82;6.47;;;32.00;99.90;;;;;;5115685;28;20031;-69
2023/03/02 09:25:19;;;;;;;14.52;9.75;;;31.90;99.90;;;;;;5115266;28;20020;-69
2023/03/02 09:27:46;;;;;;;17.27;9.45;;;31.80;99.90;;;;;;5115434;28;20472;-69
2023/03/02 09:30:14;;;;;;;23.55;12.77;;;31.90;99.90;;;;;;5115340;28;20020;-69
2023/03/02 09:32:41;;;;;;;29.45;19.45;;;31.90;99.90;;;;;;5115225;28;20041;-70
2023/03/02 09:35:08;;;;;;;31.00;18.90;;;31.90;99.90;;;;;;5115362;28;20149;-70
2023/03/02 09:37:37;;;;;;;34.22;16.23;;;;;;;;;;5120569;27;20035;-69
2023/03/02 09:40:13;;;;;;;20.75;13.38;;;31.80;99.90;;;;;;5125901;27;20420;-68
2023/03/02 09:42:53;;;;;;;23.40;16.08;;;31.80;99.90;;;;;;5115223;28;20023;-68
2023/03/02 09:45:34;;;;;;;16.88;11.63;;;31.80;99.90;;;;;;5117334;27;20126;-70
2023/03/02 09:48:10;;;;;;;39.40;24.45;;;31.80;99.90;;;;;;5124157;27;20522;-69
2023/03/02 09:50:44;;;;;;;39.88;24.55;;;31.80;99.90;;;;;;5114121;28;20585;-69
2023/03/02 09:53:20;;;;;;;27.67;14.73;;;31.70;99.90;;;;;;5114954;28;20491;-69
2023/03/02 09:55:53;;;;;;;18.35;13.07;;;31.70;99.90;;;;;;5114868;28;20042;-69
2023/03/02 09:58:24;;;;;;;13.88;9.70;;;31.70;99.90;;;;;;5114935;28;20031;-69
2023/03/02 10:00:51;;;;;;;16.13;9.60;;;31.70;99.90;;;;;;5114943;28;20024;-69
2023/03/02 10:03:25;;;;;;;14.10;9.68;;;31.70;99.90;;;;;;5114460;28;20027;-69
2023/03/02 10:05:53;;;;;;;15.68;8.27;;;31.60;99.90;;;;;;5131737;27;20031;-66
2023/03/02 10:08:23;;;;;;;31.85;18.42;;;31.60;99.90;;;;;;5128558;27;20033;-68
2023/03/02 10:10:56;;;;;;;34.95;20.73;;;31.70;99.90;;;;;;5131523;27;20157;-67
2023/03/02 10:13:46;;;;;;;20.40;14.82;;;31.60;99.90;;;;;;5129461;27;20015;-68
2023/03/02 10:16:43;;;;;;;24.15;16.73;;;31.60;99.90;;;;;;5029361;28;20041;-68
2023/03/02 10:19:31;;;;;;;41.35;27.20;;;31.60;99.90;;;;;;5030417;28;20053;-68
2023/03/02 10:22:16;;;;;;;50.72;31.00;;;31.50;99.90;;;;;;5029589;28;20075;-66
2023/03/02 10:25:10;;;;;;;79.63;48.33;;;31.50;99.90;;;;;;5030030;28;20576;-67
2023/03/02 10:27:40;;;;;;;119.75;64.88;;;31.50;99.90;;;;;;5028466;28;20063;-68
2023/03/02 10:30:29;;;;;;;71.68;45.28;;;31.50;99.90;;;;;;5030692;28;20060;-65
2023/03/02 10:33:02;;;;;;;47.97;30.23;;;31.40;99.90;;;;;;5028134;28;20034;-65
2023/03/02 10:35:31;;;;;;;42.20;29.23;;;31.40;99.90;;;;;;5027878;28;20029;-66
2023/03/02 10:38:24;;;;;;;49.30;33.47;;;31.40;99.90;;;;;;5030146;28;20091;-67
2023/03/02 10:40:58;;;;;;;68.10;40.58;;;31.40;99.90;;;;;;5030271;28;20033;-67
2023/03/02 10:43:27;;;;;;;50.92;31.05;;;31.40;99.90;;;;;;5030668;28;20022;-66
2023/03/02 10:46:07;;;;;;;48.30;28.92;;;31.40;99.90;;;;;;5039184;27;20091;-70
2023/03/02 10:48:47;;;;;;;42.72;25.35;;;31.40;99.90;;;;;;5130322;27;20490;-66
2023/03/02 10:51:35;;;;;;;50.90;28.50;;;31.30;99.90;;;;;;5128443;27;20047;-66
2023/03/02 10:54:04;;;;;;;49.20;26.13;;;31.30;99.90;;;;;;5132530;27;20038;-66
2023/03/02 10:56:32;;;;;;;42.45;26.52;;;31.20;99.90;;;;;;5131011;27;20027;-67
2023/03/02 10:59:02;;;;;;;36.33;21.73;;;31.20;99.90;;;;;;5133166;27;20027;-67
2023/03/02 11:01:30;;;;;;;37.25;23.23;;;31.20;99.90;;;;;;5130638;27;20103;-67
2023/03/02 11:04:00;;;;;;;54.28;32.67;;;31.20;99.90;;;;;;5133421;27;20015;-66
2023/03/02 11:06:28;;;;;;;69.35;39.35;;;31.20;99.90;;;;;;5133158;28;20399;-67
2023/03/02 11:09:06;;;;;;;98.45;54.85;;;31.10;99.90;;;;;;5133318;28;20012;-68
2023/03/02 11:11:33;;;;;;;154.05;95.85;;;31.10;99.90;;;;;;5130956;28;20042;-66
2023/03/02 11:14:15;;;;;;;157.30;99.18;;;31.10;99.90;;;;;;5133277;28;20016;-68
2023/03/02 11:16:42;;;;;;;140.95;92.10;;;31.10;99.90;;;;;;5132346;28;20035;-67
2023/03/02 11:19:17;;;;;;;146.98;96.55;;;31.00;99.90;;;;;;5130440;28;20098;-68
2023/03/02 11:21:50;;;;;;;113.28;77.47;;;31.00;99.90;;;;;;5133199;28;20038;-67
2023/03/02 11:24:27;;;;;;;81.57;54.65;;;31.00;99.90;;;;;;5129360;28;20103;-67
2023/03/02 11:26:59;;;;;;;89.63;60.20;;;31.00;99.90;;;;;;5128833;28;20028;-67
2023/03/02 11:29:38;;;;;;;102.20;65.47;;;31.00;99.90;;;;;;5131864;28;20015;-67
2023/03/02 11:32:21;;;;;;;112.70;70.75;;;30.90;99.90;;;;;;5131656;28;20019;-68
2023/03/02 11:34:54;;;;;;;124.25;78.72;;;30.90;99.90;;;;;;5132087;28;20415;-69
2023/03/02 11:37:22;;;;;;;121.88;80.00;;;30.80;99.90;;;;;;5132349;28;20091;-70
2023/03/02 11:39:49;;;;;;;118.50;72.45;;;30.80;99.90;;;;;;5130220;28;20484;-68
2023/03/02 11:42:20;;;;;;;101.30;62.92;;;30.80;99.90;;;;;;5131982;28;20062;-68
2023/03/02 11:44:48;;;;;;;85.63;48.53;;;30.70;99.90;;;;;;5131774;28;20026;-68
2023/03/02 11:47:16;;;;;;;79.50;42.22;;;30.70;99.90;;;;;;5132266;28;20258;-67
2023/03/02 11:49:52;;;;;;;61.83;35.80;;;30.70;99.90;;;;;;5132288;28;20041;-67
2023/03/02 11:52:23;;;;;;;57.05;33.70;;;30.70;99.90;;;;;;5131625;28;20110;-70
2023/03/02 11:55:03;;;;;;;57.10;32.17;;;30.70;99.90;;;;;;5130010;28;20462;-67
2023/03/02 11:57:37;;;;;;;50.30;28.63;;;30.60;99.90;;;;;;5128601;28;20019;-67
2023/03/02 12:00:19;;;;;;;47.30;27.05;;;30.60;99.90;;;;;;5131849;28;20015;-67
2023/03/02 12:02:45;;;;;;;46.90;27.15;;;30.60;99.90;;;;;;5129133;28;20022;-68
2023/03/02 12:05:35;;;;;;;47.55;27.48;;;30.50;99.90;;;;;;5132539;28;20043;-68
2023/03/02 12:08:07;;;;;;;56.88;30.02;;;30.50;99.90;;;;;;5131633;28;20027;-68
2023/03/02 12:10:40;;;;;;;58.25;31.58;;;30.50;99.90;;;;;;5130405;28;20022;-69
2023/03/02 12:13:15;;;;;;;59.88;33.13;;;30.50;99.90;;;;;;5134136;27;20027;-68
2023/03/02 12:15:46;;;;;;;70.80;37.13;;;30.50;99.90;;;;;;5134530;27;20042;-66
2023/03/02 12:18:26;;;;;;;65.78;34.30;;;30.50;99.90;;;;;;5136322;27;20027;-68
2023/03/02 12:21:08;;;;;;;40.78;24.75;;;30.40;99.90;;;;;;5136381;27;20027;-66
2023/03/02 12:23:53;;;;;;;119.68;79.97;;;30.20;99.90;;;;;;5133877;27;20094;-66
2023/03/02 12:26:20;;;;;;;158.18;99.50;;;30.20;99.90;;;;;;5134113;27;20049;-67
2023/03/02 12:28:56;;;;;;;106.28;68.45;;;30.10;99.90;;;;;;5132731;27;20431;-66
2023/03/02 12:31:23;;;;;;;42.33;25.10;;;30.00;99.90;;;;;;5132798;27;20149;-67
2023/03/02 12:33:51;;;;;;;29.77;20.90;;;30.00;99.90;;;;;;5128079;27;20055;-68
2023/03/02 12:36:40;;;;;;;42.60;27.05;;;29.90;99.90;;;;;;5137305;27;20391;-67
2023/03/02 12:39:11;;;;;;;26.40;15.07;;;29.90;99.90;;;;;;5137010;27;20050;-66
2023/03/02 12:41:43;;;;;;;35.80;18.55;;;29.80;99.90;;;;;;5136940;27;20399;-66
2023/03/02 12:44:11;;;;;;;;;;;29.80;99.90;;;;;;5137436;27;20031;-67